sensor_id;sensor_type;location;lat;lon;timestamp;P1;durP1;ratioP1;P2;durP2;ratioP2
48487;SDS011;34289;48.572;13.378;2024-02-21T00:01:46;5.47;;;4.35;;
48487;SDS011;34289;48.572;13.378;2024-02-21T00:04:12;14.18;;;5.82;;
48487;SDS011;34289;48.572;13.378;2024-02-21T00:06:37;7.18;;;5.15;;
48487;SDS011;34289;48.572;13.378;2024-02-21T00:09:03;8.93;;;4.32;;
48487;SDS011;34289;48.572;13.378;2024-02-21T00:11:29;9.60;;;5.00;;
48487;SDS011;34289;48.572;13.378;2024-02-21T00:13:56;5.70;;;4.63;;
48487;SDS011;34289;48.572;13.378;2024-02-21T00:16:21;5.57;;;4.25;;
48487;SDS011;34289;48.572;13.378;2024-02-21T00:18:48;6.25;;;4.45;;
48487;SDS011;34289;48.572;13.378;2024-02-21T00:21:14;9.57;;;5.25;;
48487;SDS011;34289;48.572;13.378;2024-02-21T00:23:43;9.95;;;4.40;;
48487;SDS011;34289;48.572;13.378;2024-02-21T00:26:11;10.07;;;4.22;;
48487;SDS011;34289;48.572;13.378;2024-02-21T00:28:38;9.35;;;4.40;;
48487;SDS011;34289;48.572;13.378;2024-02-21T00:31:04;12.30;;;5.18;;
48487;SDS011;34289;48.572;13.378;2024-02-21T00:33:30;6.72;;;4.43;;
48487;SDS011;34289;48.572;13.378;2024-02-21T00:35:56;7.43;;;4.90;;
48487;SDS011;34289;48.572;13.378;2024-02-21T00:38:22;7.68;;;4.43;;
48487;SDS011;34289;48.572;13.378;2024-02-21T00:40:48;8.95;;;4.50;;
48487;SDS011;34289;48.572;13.378;2024-02-21T00:43:13;10.65;;;4.72;;
48487;SDS011;34289;48.572;13.378;2024-02-21T00:45:40;5.57;;;4.13;;
48487;SDS011;34289;48.572;13.378;2024-02-21T00:48:06;7.65;;;4.30;;
48487;SDS011;34289;48.572;13.378;2024-02-21T00:50:32;9.95;;;4.55;;
48487;SDS011;34289;48.572;13.378;2024-02-21T00:52:58;5.68;;;4.18;;
48487;SDS011;34289;48.572;13.378;2024-02-21T00:55:24;17.83;;;4.75;;
48487;SDS011;34289;48.572;13.378;2024-02-21T00:57:50;5.25;;;4.10;;
48487;SDS011;34289;48.572;13.378;2024-02-21T01:00:15;10.05;;;4.85;;
48487;SDS011;34289;48.572;13.378;2024-02-21T01:02:41;5.57;;;4.10;;
48487;SDS011;34289;48.572;13.378;2024-02-21T01:05:07;9.90;;;5.00;;
48487;SDS011;34289;48.572;13.378;2024-02-21T01:07:32;7.20;;;4.70;;
48487;SDS011;34289;48.572;13.378;2024-02-21T01:09:58;9.45;;;4.53;;
48487;SDS011;34289;48.572;13.378;2024-02-21T01:12:24;8.15;;;4.82;;
48487;SDS011;34289;48.572;13.378;2024-02-21T01:14:50;6.72;;;4.18;;
48487;SDS011;34289;48.572;13.378;2024-02-21T01:17:17;8.80;;;4.25;;
48487;SDS011;34289;48.572;13.378;2024-02-21T01:19:43;10.25;;;4.40;;
48487;SDS011;34289;48.572;13.378;2024-02-21T01:22:08;7.07;;;4.35;;
48487;SDS011;34289;48.572;13.378;2024-02-21T01:24:34;9.38;;;5.72;;
48487;SDS011;34289;48.572;13.378;2024-02-21T01:27:00;15.40;;;4.80;;
48487;SDS011;34289;48.572;13.378;2024-02-21T01:29:26;6.28;;;4.40;;
48487;SDS011;34289;48.572;13.378;2024-02-21T01:31:52;6.18;;;4.20;;
48487;SDS011;34289;48.572;13.378;2024-02-21T01:34:18;6.60;;;4.15;;
48487;SDS011;34289;48.572;13.378;2024-02-21T01:36:44;5.97;;;4.70;;
48487;SDS011;34289;48.572;13.378;2024-02-21T01:39:10;9.40;;;4.20;;
48487;SDS011;34289;48.572;13.378;2024-02-21T01:41:36;11.20;;;4.50;;
48487;SDS011;34289;48.572;13.378;2024-02-21T01:44:01;7.93;;;4.35;;
48487;SDS011;34289;48.572;13.378;2024-02-21T01:46:27;10.13;;;4.15;;
48487;SDS011;34289;48.572;13.378;2024-02-21T01:48:55;11.77;;;4.45;;
48487;SDS011;34289;48.572;13.378;2024-02-21T01:51:22;8.80;;;4.53;;
48487;SDS011;34289;48.572;13.378;2024-02-21T01:53:49;7.40;;;4.18;;
48487;SDS011;34289;48.572;13.378;2024-02-21T01:56:16;7.32;;;4.28;;
48487;SDS011;34289;48.572;13.378;2024-02-21T01:58:42;6.28;;;4.38;;
48487;SDS011;34289;48.572;13.378;2024-02-21T02:01:08;6.65;;;4.10;;
48487;SDS011;34289;48.572;13.378;2024-02-21T02:03:35;8.27;;;4.60;;
48487;SDS011;34289;48.572;13.378;2024-02-21T02:06:01;6.90;;;4.28;;
48487;SDS011;34289;48.572;13.378;2024-02-21T02:08:27;5.95;;;4.53;;
48487;SDS011;34289;48.572;13.378;2024-02-21T02:10:53;7.80;;;3.90;;
48487;SDS011;34289;48.572;13.378;2024-02-21T02:13:19;5.43;;;4.00;;
48487;SDS011;34289;48.572;13.378;2024-02-21T02:15:45;7.07;;;3.90;;
48487;SDS011;34289;48.572;13.378;2024-02-21T02:18:13;6.10;;;3.72;;
48487;SDS011;34289;48.572;13.378;2024-02-21T02:20:40;5.45;;;4.03;;
48487;SDS011;34289;48.572;13.378;2024-02-21T02:25:38;5.63;;;4.63;;
48487;SDS011;34289;48.572;13.378;2024-02-21T02:28:07;6.20;;;4.65;;
48487;SDS011;34289;48.572;13.378;2024-02-21T02:30:34;8.38;;;4.20;;
48487;SDS011;34289;48.572;13.378;2024-02-21T02:33:01;8.23;;;4.40;;
48487;SDS011;34289;48.572;13.378;2024-02-21T02:35:27;9.57;;;4.90;;
48487;SDS011;34289;48.572;13.378;2024-02-21T02:37:53;9.30;;;4.35;;
48487;SDS011;34289;48.572;13.378;2024-02-21T02:40:19;9.95;;;4.72;;
48487;SDS011;34289;48.572;13.378;2024-02-21T02:42:45;7.15;;;4.30;;
48487;SDS011;34289;48.572;13.378;2024-02-21T02:45:13;10.82;;;4.63;;
48487;SDS011;34289;48.572;13.378;2024-02-21T02:47:39;7.05;;;4.03;;
48487;SDS011;34289;48.572;13.378;2024-02-21T02:50:05;8.13;;;4.40;;
48487;SDS011;34289;48.572;13.378;2024-02-21T02:52:31;7.68;;;4.68;;
48487;SDS011;34289;48.572;13.378;2024-02-21T02:54:57;11.13;;;4.32;;
48487;SDS011;34289;48.572;13.378;2024-02-21T02:57:23;7.47;;;4.05;;
48487;SDS011;34289;48.572;13.378;2024-02-21T02:59:52;6.65;;;3.65;;
48487;SDS011;34289;48.572;13.378;2024-02-21T03:02:18;8.10;;;4.10;;
48487;SDS011;34289;48.572;13.378;2024-02-21T03:04:44;5.50;;;3.53;;
48487;SDS011;34289;48.572;13.378;2024-02-21T03:07:10;9.27;;;4.63;;
48487;SDS011;34289;48.572;13.378;2024-02-21T03:09:39;4.50;;;4.07;;
48487;SDS011;34289;48.572;13.378;2024-02-21T03:12:05;5.25;;;4.22;;
48487;SDS011;34289;48.572;13.378;2024-02-21T03:14:32;8.82;;;4.45;;
48487;SDS011;34289;48.572;13.378;2024-02-21T03:16:58;10.20;;;4.45;;
48487;SDS011;34289;48.572;13.378;2024-02-21T03:19:24;6.78;;;4.78;;
48487;SDS011;34289;48.572;13.378;2024-02-21T03:21:50;7.13;;;4.03;;
48487;SDS011;34289;48.572;13.378;2024-02-21T03:24:16;10.50;;;4.50;;
48487;SDS011;34289;48.572;13.378;2024-02-21T03:26:42;6.85;;;4.00;;
48487;SDS011;34289;48.572;13.378;2024-02-21T03:29:08;8.50;;;4.22;;
48487;SDS011;34289;48.572;13.378;2024-02-21T03:31:34;8.00;;;3.78;;
48487;SDS011;34289;48.572;13.378;2024-02-21T03:34:00;7.25;;;4.45;;
48487;SDS011;34289;48.572;13.378;2024-02-21T03:36:26;12.98;;;4.50;;
48487;SDS011;34289;48.572;13.378;2024-02-21T03:38:52;8.32;;;4.00;;
48487;SDS011;34289;48.572;13.378;2024-02-21T03:41:18;7.22;;;4.25;;
48487;SDS011;34289;48.572;13.378;2024-02-21T03:43:44;11.68;;;5.32;;
48487;SDS011;34289;48.572;13.378;2024-02-21T03:46:09;8.93;;;4.43;;
48487;SDS011;34289;48.572;13.378;2024-02-21T03:48:35;10.57;;;4.38;;
48487;SDS011;34289;48.572;13.378;2024-02-21T03:51:01;5.95;;;4.68;;
48487;SDS011;34289;48.572;13.378;2024-02-21T03:53:27;6.72;;;5.10;;
48487;SDS011;34289;48.572;13.378;2024-02-21T03:55:53;9.98;;;4.18;;
48487;SDS011;34289;48.572;13.378;2024-02-21T03:58:19;8.70;;;4.07;;
48487;SDS011;34289;48.572;13.378;2024-02-21T04:00:45;6.55;;;4.43;;
48487;SDS011;34289;48.572;13.378;2024-02-21T04:03:11;5.80;;;4.38;;
48487;SDS011;34289;48.572;13.378;2024-02-21T04:05:36;9.65;;;4.53;;
48487;SDS011;34289;48.572;13.378;2024-02-21T04:08:04;9.90;;;5.00;;
48487;SDS011;34289;48.572;13.378;2024-02-21T04:10:30;6.07;;;4.15;;
48487;SDS011;34289;48.572;13.378;2024-02-21T04:12:55;7.28;;;4.13;;
48487;SDS011;34289;48.572;13.378;2024-02-21T04:15:21;10.40;;;4.00;;
48487;SDS011;34289;48.572;13.378;2024-02-21T04:17:47;6.93;;;4.20;;
48487;SDS011;34289;48.572;13.378;2024-02-21T04:20:14;8.73;;;3.92;;
48487;SDS011;34289;48.572;13.378;2024-02-21T04:22:40;8.65;;;4.53;;
48487;SDS011;34289;48.572;13.378;2024-02-21T04:25:08;5.82;;;3.80;;
48487;SDS011;34289;48.572;13.378;2024-02-21T04:27:33;6.65;;;3.80;;
48487;SDS011;34289;48.572;13.378;2024-02-21T04:30:00;7.10;;;4.03;;
48487;SDS011;34289;48.572;13.378;2024-02-21T04:32:26;8.07;;;4.93;;
48487;SDS011;34289;48.572;13.378;2024-02-21T04:34:52;5.97;;;3.90;;
48487;SDS011;34289;48.572;13.378;2024-02-21T04:37:18;6.13;;;4.15;;
48487;SDS011;34289;48.572;13.378;2024-02-21T04:39:45;8.35;;;4.13;;
48487;SDS011;34289;48.572;13.378;2024-02-21T04:42:11;5.47;;;4.47;;
48487;SDS011;34289;48.572;13.378;2024-02-21T04:44:37;5.65;;;4.43;;
48487;SDS011;34289;48.572;13.378;2024-02-21T04:47:03;5.07;;;4.25;;
48487;SDS011;34289;48.572;13.378;2024-02-21T04:49:29;4.70;;;4.10;;
48487;SDS011;34289;48.572;13.378;2024-02-21T04:51:55;6.55;;;4.43;;
48487;SDS011;34289;48.572;13.378;2024-02-21T04:54:21;6.88;;;4.28;;
48487;SDS011;34289;48.572;13.378;2024-02-21T04:56:47;5.88;;;4.22;;
48487;SDS011;34289;48.572;13.378;2024-02-21T04:59:13;11.65;;;4.80;;
48487;SDS011;34289;48.572;13.378;2024-02-21T05:01:39;11.43;;;4.10;;
48487;SDS011;34289;48.572;13.378;2024-02-21T05:04:05;7.45;;;3.90;;
48487;SDS011;34289;48.572;13.378;2024-02-21T05:06:31;8.02;;;4.32;;
48487;SDS011;34289;48.572;13.378;2024-02-21T05:08:57;8.40;;;4.75;;
48487;SDS011;34289;48.572;13.378;2024-02-21T05:11:23;8.30;;;4.32;;
48487;SDS011;34289;48.572;13.378;2024-02-21T05:13:50;4.65;;;4.22;;
48487;SDS011;34289;48.572;13.378;2024-02-21T05:16:15;5.05;;;4.28;;
48487;SDS011;34289;48.572;13.378;2024-02-21T05:18:41;10.30;;;4.20;;
48487;SDS011;34289;48.572;13.378;2024-02-21T05:21:10;9.60;;;4.32;;
48487;SDS011;34289;48.572;13.378;2024-02-21T05:23:37;8.85;;;4.32;;
48487;SDS011;34289;48.572;13.378;2024-02-21T05:26:04;8.35;;;3.90;;
48487;SDS011;34289;48.572;13.378;2024-02-21T05:28:30;9.10;;;5.13;;
48487;SDS011;34289;48.572;13.378;2024-02-21T05:30:56;5.28;;;3.95;;
48487;SDS011;34289;48.572;13.378;2024-02-21T05:33:22;8.23;;;4.18;;
48487;SDS011;34289;48.572;13.378;2024-02-21T05:35:47;6.32;;;3.72;;
48487;SDS011;34289;48.572;13.378;2024-02-21T05:38:14;4.30;;;3.85;;
48487;SDS011;34289;48.572;13.378;2024-02-21T05:40:39;10.93;;;4.05;;
48487;SDS011;34289;48.572;13.378;2024-02-21T05:43:07;7.88;;;4.05;;
48487;SDS011;34289;48.572;13.378;2024-02-21T05:45:33;7.30;;;4.03;;
48487;SDS011;34289;48.572;13.378;2024-02-21T05:47:59;8.75;;;3.63;;
48487;SDS011;34289;48.572;13.378;2024-02-21T05:50:25;4.00;;;3.42;;
48487;SDS011;34289;48.572;13.378;2024-02-21T05:52:52;4.45;;;3.55;;
48487;SDS011;34289;48.572;13.378;2024-02-21T05:55:19;6.28;;;3.60;;
48487;SDS011;34289;48.572;13.378;2024-02-21T05:57:45;8.38;;;4.22;;
48487;SDS011;34289;48.572;13.378;2024-02-21T06:00:10;7.97;;;4.07;;
48487;SDS011;34289;48.572;13.378;2024-02-21T06:02:36;7.25;;;4.10;;
48487;SDS011;34289;48.572;13.378;2024-02-21T06:05:02;6.75;;;4.05;;
48487;SDS011;34289;48.572;13.378;2024-02-21T06:07:32;6.25;;;4.00;;
48487;SDS011;34289;48.572;13.378;2024-02-21T06:09:58;7.43;;;4.30;;
48487;SDS011;34289;48.572;13.378;2024-02-21T06:12:24;9.48;;;3.10;;
48487;SDS011;34289;48.572;13.378;2024-02-21T06:14:50;7.35;;;3.13;;
48487;SDS011;34289;48.572;13.378;2024-02-21T06:17:16;6.65;;;3.13;;
48487;SDS011;34289;48.572;13.378;2024-02-21T06:19:42;6.10;;;3.70;;
48487;SDS011;34289;48.572;13.378;2024-02-21T06:22:08;6.38;;;3.53;;
48487;SDS011;34289;48.572;13.378;2024-02-21T06:24:34;8.05;;;3.70;;
48487;SDS011;34289;48.572;13.378;2024-02-21T06:27:01;8.43;;;3.35;;
48487;SDS011;34289;48.572;13.378;2024-02-21T06:29:33;8.68;;;3.60;;
48487;SDS011;34289;48.572;13.378;2024-02-21T06:31:59;6.50;;;3.25;;
48487;SDS011;34289;48.572;13.378;2024-02-21T06:34:25;6.82;;;3.33;;
48487;SDS011;34289;48.572;13.378;2024-02-21T06:36:51;5.88;;;3.40;;
48487;SDS011;34289;48.572;13.378;2024-02-21T06:39:16;7.13;;;3.22;;
48487;SDS011;34289;48.572;13.378;2024-02-21T06:41:42;8.18;;;4.20;;
48487;SDS011;34289;48.572;13.378;2024-02-21T06:44:08;8.38;;;3.53;;
48487;SDS011;34289;48.572;13.378;2024-02-21T06:46:34;12.45;;;3.78;;
48487;SDS011;34289;48.572;13.378;2024-02-21T06:49:00;6.45;;;3.33;;
48487;SDS011;34289;48.572;13.378;2024-02-21T06:51:28;6.30;;;3.47;;
48487;SDS011;34289;48.572;13.378;2024-02-21T06:53:54;4.78;;;3.13;;
48487;SDS011;34289;48.572;13.378;2024-02-21T06:56:20;5.22;;;3.83;;
48487;SDS011;34289;48.572;13.378;2024-02-21T06:58:46;6.28;;;3.40;;
48487;SDS011;34289;48.572;13.378;2024-02-21T07:01:12;8.48;;;3.97;;
48487;SDS011;34289;48.572;13.378;2024-02-21T07:03:38;3.30;;;3.00;;
48487;SDS011;34289;48.572;13.378;2024-02-21T07:06:04;6.35;;;3.63;;
48487;SDS011;34289;48.572;13.378;2024-02-21T07:08:30;6.70;;;3.85;;
48487;SDS011;34289;48.572;13.378;2024-02-21T07:10:56;9.07;;;3.90;;
48487;SDS011;34289;48.572;13.378;2024-02-21T07:13:22;3.85;;;3.45;;
48487;SDS011;34289;48.572;13.378;2024-02-21T07:15:48;9.13;;;3.72;;
48487;SDS011;34289;48.572;13.378;2024-02-21T07:18:14;7.65;;;3.97;;
48487;SDS011;34289;48.572;13.378;2024-02-21T07:20:40;7.20;;;4.03;;
48487;SDS011;34289;48.572;13.378;2024-02-21T07:23:08;6.45;;;4.80;;
48487;SDS011;34289;48.572;13.378;2024-02-21T07:25:33;8.23;;;4.28;;
48487;SDS011;34289;48.572;13.378;2024-02-21T07:27:59;10.57;;;4.55;;
48487;SDS011;34289;48.572;13.378;2024-02-21T07:30:25;9.23;;;5.30;;
48487;SDS011;34289;48.572;13.378;2024-02-21T07:32:51;5.13;;;4.15;;
48487;SDS011;34289;48.572;13.378;2024-02-21T07:35:17;8.45;;;4.88;;
48487;SDS011;34289;48.572;13.378;2024-02-21T07:37:43;8.50;;;4.95;;
48487;SDS011;34289;48.572;13.378;2024-02-21T07:40:12;9.18;;;5.03;;
48487;SDS011;34289;48.572;13.378;2024-02-21T07:42:39;7.20;;;5.55;;
48487;SDS011;34289;48.572;13.378;2024-02-21T07:45:04;7.97;;;5.43;;
48487;SDS011;34289;48.572;13.378;2024-02-21T07:47:30;10.05;;;5.85;;
48487;SDS011;34289;48.572;13.378;2024-02-21T07:49:56;6.70;;;6.05;;
48487;SDS011;34289;48.572;13.378;2024-02-21T07:52:22;8.73;;;5.80;;
48487;SDS011;34289;48.572;13.378;2024-02-21T07:54:48;7.85;;;6.68;;
48487;SDS011;34289;48.572;13.378;2024-02-21T07:57:13;9.15;;;5.88;;
48487;SDS011;34289;48.572;13.378;2024-02-21T07:59:39;11.23;;;6.47;;
48487;SDS011;34289;48.572;13.378;2024-02-21T08:02:05;6.50;;;5.90;;
48487;SDS011;34289;48.572;13.378;2024-02-21T08:04:32;10.05;;;5.95;;
48487;SDS011;34289;48.572;13.378;2024-02-21T08:06:57;15.20;;;5.80;;
48487;SDS011;34289;48.572;13.378;2024-02-21T08:09:27;8.32;;;5.80;;
48487;SDS011;34289;48.572;13.378;2024-02-21T08:11:54;16.27;;;4.93;;
48487;SDS011;34289;48.572;13.378;2024-02-21T08:14:20;7.82;;;5.25;;
48487;SDS011;34289;48.572;13.378;2024-02-21T08:16:46;11.40;;;6.70;;
48487;SDS011;34289;48.572;13.378;2024-02-21T08:19:12;8.23;;;6.88;;
48487;SDS011;34289;48.572;13.378;2024-02-21T08:21:37;11.27;;;6.90;;
48487;SDS011;34289;48.572;13.378;2024-02-21T08:24:03;6.50;;;5.85;;
48487;SDS011;34289;48.572;13.378;2024-02-21T08:26:29;8.95;;;6.10;;
48487;SDS011;34289;48.572;13.378;2024-02-21T08:28:56;5.25;;;4.82;;
48487;SDS011;34289;48.572;13.378;2024-02-21T08:31:26;6.78;;;6.07;;
48487;SDS011;34289;48.572;13.378;2024-02-21T08:33:59;8.02;;;4.97;;
48487;SDS011;34289;48.572;13.378;2024-02-21T08:36:35;6.43;;;4.88;;
48487;SDS011;34289;48.572;13.378;2024-02-21T08:41:33;5.93;;;5.20;;
48487;SDS011;34289;48.572;13.378;2024-02-21T08:43:59;5.35;;;4.85;;
48487;SDS011;34289;48.572;13.378;2024-02-21T08:46:25;7.88;;;5.30;;
48487;SDS011;34289;48.572;13.378;2024-02-21T08:48:52;6.10;;;5.25;;
48487;SDS011;34289;48.572;13.378;2024-02-21T08:51:18;12.68;;;5.90;;
48487;SDS011;34289;48.572;13.378;2024-02-21T08:53:44;7.30;;;6.10;;
48487;SDS011;34289;48.572;13.378;2024-02-21T08:56:10;7.38;;;5.40;;
48487;SDS011;34289;48.572;13.378;2024-02-21T08:58:36;9.45;;;6.00;;
48487;SDS011;34289;48.572;13.378;2024-02-21T09:01:03;6.13;;;5.38;;
48487;SDS011;34289;48.572;13.378;2024-02-21T09:03:32;6.97;;;5.93;;
48487;SDS011;34289;48.572;13.378;2024-02-21T09:05:59;9.38;;;5.78;;
48487;SDS011;34289;48.572;13.378;2024-02-21T09:08:25;7.07;;;5.20;;
48487;SDS011;34289;48.572;13.378;2024-02-21T09:10:54;6.47;;;5.68;;
48487;SDS011;34289;48.572;13.378;2024-02-21T09:13:19;6.88;;;6.13;;
48487;SDS011;34289;48.572;13.378;2024-02-21T09:15:45;8.13;;;6.90;;
48487;SDS011;34289;48.572;13.378;2024-02-21T09:18:12;10.18;;;7.15;;
48487;SDS011;34289;48.572;13.378;2024-02-21T09:20:37;7.75;;;6.97;;
48487;SDS011;34289;48.572;13.378;2024-02-21T09:23:03;7.95;;;7.00;;
48487;SDS011;34289;48.572;13.378;2024-02-21T09:25:29;8.10;;;7.28;;
48487;SDS011;34289;48.572;13.378;2024-02-21T09:27:56;7.00;;;6.40;;
48487;SDS011;34289;48.572;13.378;2024-02-21T09:30:23;8.18;;;7.32;;
48487;SDS011;34289;48.572;13.378;2024-02-21T09:32:49;7.45;;;6.20;;
48487;SDS011;34289;48.572;13.378;2024-02-21T09:35:15;6.97;;;6.20;;
48487;SDS011;34289;48.572;13.378;2024-02-21T09:37:40;6.85;;;6.35;;
48487;SDS011;34289;48.572;13.378;2024-02-21T09:40:06;7.13;;;6.45;;
48487;SDS011;34289;48.572;13.378;2024-02-21T09:42:38;8.10;;;7.40;;
48487;SDS011;34289;48.572;13.378;2024-02-21T09:45:07;7.00;;;4.80;;
48487;SDS011;34289;48.572;13.378;2024-02-21T09:50:44;5.82;;;5.32;;
48487;SDS011;34289;48.572;13.378;2024-02-21T09:53:12;8.30;;;6.65;;
48487;SDS011;34289;48.572;13.378;2024-02-21T09:55:40;8.48;;;5.63;;
48487;SDS011;34289;48.572;13.378;2024-02-21T09:58:08;7.53;;;6.82;;
48487;SDS011;34289;48.572;13.378;2024-02-21T10:00:37;8.52;;;6.15;;
48487;SDS011;34289;48.572;13.378;2024-02-21T10:03:03;7.88;;;7.20;;
48487;SDS011;34289;48.572;13.378;2024-02-21T10:05:34;11.73;;;6.13;;
48487;SDS011;34289;48.572;13.378;2024-02-21T10:08:01;8.70;;;5.95;;
48487;SDS011;34289;48.572;13.378;2024-02-21T10:10:27;8.10;;;6.85;;
48487;SDS011;34289;48.572;13.378;2024-02-21T10:12:54;7.85;;;7.15;;
48487;SDS011;34289;48.572;13.378;2024-02-21T10:15:21;9.02;;;8.18;;
48487;SDS011;34289;48.572;13.378;2024-02-21T10:17:59;7.20;;;5.50;;
48487;SDS011;34289;48.572;13.378;2024-02-21T10:20:28;9.98;;;5.40;;
48487;SDS011;34289;48.572;13.378;2024-02-21T10:23:06;6.28;;;5.68;;
48487;SDS011;34289;48.572;13.378;2024-02-21T10:25:35;6.68;;;6.05;;
48487;SDS011;34289;48.572;13.378;2024-02-21T10:28:06;7.15;;;5.10;;
48487;SDS011;34289;48.572;13.378;2024-02-21T10:30:32;5.95;;;5.05;;
48487;SDS011;34289;48.572;13.378;2024-02-21T10:32:58;6.28;;;5.20;;
48487;SDS011;34289;48.572;13.378;2024-02-21T10:37:55;11.57;;;8.10;;
48487;SDS011;34289;48.572;13.378;2024-02-21T10:40:25;8.77;;;8.00;;
48487;SDS011;34289;48.572;13.378;2024-02-21T10:42:59;5.57;;;1.50;;
48487;SDS011;34289;48.572;13.378;2024-02-21T10:45:34;9.00;;;7.53;;
48487;SDS011;34289;48.572;13.378;2024-02-21T10:48:16;9.63;;;8.80;;
48487;SDS011;34289;48.572;13.378;2024-02-21T10:55:58;5.47;;;1.65;;
48487;SDS011;34289;48.572;13.378;2024-02-21T10:58:33;4.53;;;1.60;;
48487;SDS011;34289;48.572;13.378;2024-02-21T11:00:59;4.20;;;1.70;;
48487;SDS011;34289;48.572;13.378;2024-02-21T11:03:25;4.85;;;1.30;;
48487;SDS011;34289;48.572;13.378;2024-02-21T11:05:51;6.75;;;2.33;;
48487;SDS011;34289;48.572;13.378;2024-02-21T11:08:17;4.15;;;1.38;;
48487;SDS011;34289;48.572;13.378;2024-02-21T11:10:45;5.75;;;1.50;;
48487;SDS011;34289;48.572;13.378;2024-02-21T11:13:11;4.00;;;1.23;;
48487;SDS011;34289;48.572;13.378;2024-02-21T11:15:38;5.32;;;1.60;;
48487;SDS011;34289;48.572;13.378;2024-02-21T11:18:04;4.10;;;1.48;;
48487;SDS011;34289;48.572;13.378;2024-02-21T11:20:33;6.03;;;1.60;;
48487;SDS011;34289;48.572;13.378;2024-02-21T11:23:03;3.80;;;1.25;;
48487;SDS011;34289;48.572;13.378;2024-02-21T11:25:29;6.22;;;2.20;;
48487;SDS011;34289;48.572;13.378;2024-02-21T11:27:59;5.38;;;1.85;;
48487;SDS011;34289;48.572;13.378;2024-02-21T11:30:32;5.35;;;1.50;;
48487;SDS011;34289;48.572;13.378;2024-02-21T11:33:03;4.17;;;1.63;;
48487;SDS011;34289;48.572;13.378;2024-02-21T11:35:34;5.68;;;2.25;;
48487;SDS011;34289;48.572;13.378;2024-02-21T11:38:10;7.82;;;1.85;;
48487;SDS011;34289;48.572;13.378;2024-02-21T11:40:41;5.60;;;1.48;;
48487;SDS011;34289;48.572;13.378;2024-02-21T11:43:09;7.07;;;1.77;;
48487;SDS011;34289;48.572;13.378;2024-02-21T11:45:35;8.23;;;2.15;;
48487;SDS011;34289;48.572;13.378;2024-02-21T11:48:00;5.15;;;2.30;;
48487;SDS011;34289;48.572;13.378;2024-02-21T11:50:29;2.97;;;1.30;;
48487;SDS011;34289;48.572;13.378;2024-02-21T11:52:55;3.17;;;1.30;;
48487;SDS011;34289;48.572;13.378;2024-02-21T11:55:22;8.10;;;1.40;;
48487;SDS011;34289;48.572;13.378;2024-02-21T11:57:48;2.72;;;1.05;;
48487;SDS011;34289;48.572;13.378;2024-02-21T12:02:41;5.53;;;1.33;;
48487;SDS011;34289;48.572;13.378;2024-02-21T12:05:07;3.55;;;1.38;;
48487;SDS011;34289;48.572;13.378;2024-02-21T12:07:33;3.45;;;1.38;;
48487;SDS011;34289;48.572;13.378;2024-02-21T12:10:00;9.05;;;1.75;;
48487;SDS011;34289;48.572;13.378;2024-02-21T12:12:26;4.35;;;1.80;;
48487;SDS011;34289;48.572;13.378;2024-02-21T12:14:55;4.25;;;1.42;;
48487;SDS011;34289;48.572;13.378;2024-02-21T12:17:24;3.88;;;1.30;;
48487;SDS011;34289;48.572;13.378;2024-02-21T12:19:50;4.18;;;1.45;;
48487;SDS011;34289;48.572;13.378;2024-02-21T12:22:16;7.38;;;1.88;;
48487;SDS011;34289;48.572;13.378;2024-02-21T12:24:43;12.55;;;1.88;;
48487;SDS011;34289;48.572;13.378;2024-02-21T12:27:13;6.10;;;1.92;;
48487;SDS011;34289;48.572;13.378;2024-02-21T12:29:38;6.45;;;1.45;;
48487;SDS011;34289;48.572;13.378;2024-02-21T12:32:04;6.13;;;1.73;;
48487;SDS011;34289;48.572;13.378;2024-02-21T12:34:30;5.85;;;2.20;;
48487;SDS011;34289;48.572;13.378;2024-02-21T12:37:01;2.40;;;1.50;;
48487;SDS011;34289;48.572;13.378;2024-02-21T12:39:28;4.05;;;1.40;;
48487;SDS011;34289;48.572;13.378;2024-02-21T12:41:54;3.53;;;1.38;;
48487;SDS011;34289;48.572;13.378;2024-02-21T12:44:21;5.72;;;1.70;;
48487;SDS011;34289;48.572;13.378;2024-02-21T12:46:47;4.90;;;1.73;;
48487;SDS011;34289;48.572;13.378;2024-02-21T12:49:18;5.60;;;1.30;;
48487;SDS011;34289;48.572;13.378;2024-02-21T12:51:44;7.65;;;1.85;;
48487;SDS011;34289;48.572;13.378;2024-02-21T12:54:13;6.63;;;1.70;;
48487;SDS011;34289;48.572;13.378;2024-02-21T12:56:39;4.78;;;1.42;;
48487;SDS011;34289;48.572;13.378;2024-02-21T12:59:05;3.97;;;1.35;;
48487;SDS011;34289;48.572;13.378;2024-02-21T13:01:34;5.47;;;1.77;;
48487;SDS011;34289;48.572;13.378;2024-02-21T13:04:01;3.75;;;1.20;;
48487;SDS011;34289;48.572;13.378;2024-02-21T13:06:27;5.20;;;1.50;;
48487;SDS011;34289;48.572;13.378;2024-02-21T13:08:53;4.88;;;1.50;;
48487;SDS011;34289;48.572;13.378;2024-02-21T13:11:19;5.05;;;1.20;;
48487;SDS011;34289;48.572;13.378;2024-02-21T13:13:45;3.90;;;1.17;;
48487;SDS011;34289;48.572;13.378;2024-02-21T13:16:11;4.75;;;1.35;;
48487;SDS011;34289;48.572;13.378;2024-02-21T13:18:37;1.73;;;1.20;;
48487;SDS011;34289;48.572;13.378;2024-02-21T13:21:04;2.38;;;1.05;;
48487;SDS011;34289;48.572;13.378;2024-02-21T13:23:31;4.22;;;1.25;;
48487;SDS011;34289;48.572;13.378;2024-02-21T13:25:57;6.40;;;1.48;;
48487;SDS011;34289;48.572;13.378;2024-02-21T13:28:23;2.97;;;1.20;;
48487;SDS011;34289;48.572;13.378;2024-02-21T13:30:49;6.00;;;1.30;;
48487;SDS011;34289;48.572;13.378;2024-02-21T13:33:15;2.85;;;1.10;;
48487;SDS011;34289;48.572;13.378;2024-02-21T13:35:41;5.38;;;1.55;;
48487;SDS011;34289;48.572;13.378;2024-02-21T13:38:07;2.67;;;1.10;;
48487;SDS011;34289;48.572;13.378;2024-02-21T13:40:34;5.28;;;1.13;;
48487;SDS011;34289;48.572;13.378;2024-02-21T13:43:00;4.57;;;1.55;;
48487;SDS011;34289;48.572;13.378;2024-02-21T13:45:27;5.22;;;1.30;;
48487;SDS011;34289;48.572;13.378;2024-02-21T13:47:52;4.63;;;1.20;;
48487;SDS011;34289;48.572;13.378;2024-02-21T13:50:18;2.45;;;1.20;;
48487;SDS011;34289;48.572;13.378;2024-02-21T13:52:47;3.38;;;1.02;;
48487;SDS011;34289;48.572;13.378;2024-02-21T13:55:12;2.70;;;1.15;;
48487;SDS011;34289;48.572;13.378;2024-02-21T13:57:38;4.05;;;1.10;;
48487;SDS011;34289;48.572;13.378;2024-02-21T14:00:04;5.65;;;1.27;;
48487;SDS011;34289;48.572;13.378;2024-02-21T14:02:30;3.58;;;1.15;;
48487;SDS011;34289;48.572;13.378;2024-02-21T14:04:56;4.45;;;1.30;;
48487;SDS011;34289;48.572;13.378;2024-02-21T14:07:22;3.33;;;1.10;;
48487;SDS011;34289;48.572;13.378;2024-02-21T14:09:48;5.50;;;1.40;;
48487;SDS011;34289;48.572;13.378;2024-02-21T14:12:14;6.03;;;1.35;;
48487;SDS011;34289;48.572;13.378;2024-02-21T14:14:42;3.67;;;1.20;;
48487;SDS011;34289;48.572;13.378;2024-02-21T14:17:09;5.40;;;1.92;;
48487;SDS011;34289;48.572;13.378;2024-02-21T14:19:34;3.08;;;1.27;;
48487;SDS011;34289;48.572;13.378;2024-02-21T14:22:00;3.45;;;1.13;;
48487;SDS011;34289;48.572;13.378;2024-02-21T14:24:27;2.08;;;1.10;;
48487;SDS011;34289;48.572;13.378;2024-02-21T14:26:53;4.10;;;1.23;;
48487;SDS011;34289;48.572;13.378;2024-02-21T14:29:18;3.13;;;0.98;;
48487;SDS011;34289;48.572;13.378;2024-02-21T14:31:45;2.80;;;1.30;;
48487;SDS011;34289;48.572;13.378;2024-02-21T14:34:11;3.28;;;1.33;;
48487;SDS011;34289;48.572;13.378;2024-02-21T14:36:38;2.22;;;1.17;;
48487;SDS011;34289;48.572;13.378;2024-02-21T14:39:05;3.35;;;1.27;;
48487;SDS011;34289;48.572;13.378;2024-02-21T14:41:31;2.58;;;1.30;;
48487;SDS011;34289;48.572;13.378;2024-02-21T14:43:57;2.97;;;1.10;;
48487;SDS011;34289;48.572;13.378;2024-02-21T14:46:25;2.83;;;1.00;;
48487;SDS011;34289;48.572;13.378;2024-02-21T14:48:53;3.17;;;1.30;;